Time,TemperatureF,DewpointF,PressureIn,WindDirection,WindDirectionDegrees,WindSpeedMPH,WindSpeedGustMPH,Humidity,HourlyPrecipIn,Conditions,Clouds,dailyrainin,SoftwareType,DateUTC
2013-06-27 00:05:00,74.8,69.3,29.83,North,0,0.0,0.0,79,0.00,NA,NA,1.80,meteo_script,2013-06-27 05:05:00,
2013-06-27 00:35:00,74.4,69.4,29.83,North,0,0.0,0.0,80,0.00,NA,NA,0.00,meteo_script,2013-06-27 05:35:00,
2013-06-27 01:05:00,74.0,69.4,29.84,North,0,0.0,0.0,82,0.00,NA,NA,0.00,meteo_script,2013-06-27 06:05:00,
2013-06-27 01:35:00,73.6,69.3,29.84,North,0,0.0,0.0,83,0.00,NA,NA,0.00,meteo_script,2013-06-27 06:35:00,
2013-06-27 02:05:00,73.2,69.2,29.84,North,0,0.0,0.0,84,0.00,NA,NA,0.00,meteo_script,2013-06-27 07:05:00,
2013-06-27 02:35:00,72.6,68.8,29.83,West,266,0.0,1.0,85,0.00,NA,NA,0.00,meteo_script,2013-06-27 07:35:00,
2013-06-27 03:05:00,72.1,68.9,29.84,North,0,0.0,0.0,87,0.00,NA,NA,0.00,meteo_script,2013-06-27 08:05:00,
2013-06-27 03:35:00,71.7,68.7,29.84,North,0,0.0,0.0,87,0.00,NA,NA,0.00,meteo_script,2013-06-27 08:35:00,
2013-06-27 04:05:00,71.4,68.4,29.84,North,0,0.0,0.0,88,0.00,NA,NA,0.00,meteo_script,2013-06-27 09:05:00,
2013-06-27 04:35:00,72.2,68.6,29.83,North,0,0.0,0.0,85,0.00,NA,NA,0.00,meteo_script,2013-06-27 09:35:00,
2013-06-27 05:05:00,71.4,67.9,29.83,West,267,1.3,3.0,86,0.00,NA,NA,0.00,meteo_script,2013-06-27 10:05:00,
2013-06-27 05:35:00,70.5,67.4,29.84,West,274,0.9,3.0,87,0.00,NA,NA,0.00,meteo_script,2013-06-27 10:35:00,
2013-06-27 06:05:00,70.3,67.4,29.85,North,0,0.0,0.0,88,0.00,NA,NA,0.00,meteo_script,2013-06-27 11:05:00,
2013-06-27 06:35:00,70.3,67.5,29.86,North,0,0.0,0.0,88,0.00,NA,NA,0.00,meteo_script,2013-06-27 11:35:00,
2013-06-27 07:05:00,70.7,67.8,29.86,North,0,0.0,0.0,88,0.00,NA,NA,0.00,meteo_script,2013-06-27 12:05:00,
2013-06-27 07:35:00,71.5,68.5,29.86,West,261,0.1,1.0,88,0.00,NA,NA,0.00,meteo_script,2013-06-27 12:35:00,
2013-06-27 08:05:00,75.8,70.3,29.86,WSW,258,0.9,3.0,79,0.00,NA,NA,0.00,meteo_script,2013-06-27 13:05:00,
2013-06-27 08:35:00,78.7,70.9,29.86,WNW,286,1.0,3.0,72,0.00,NA,NA,0.00,meteo_script,2013-06-27 13:35:00,
2013-06-27 09:05:00,79.4,70.9,29.86,West,267,0.3,2.0,70,0.00,NA,NA,0.00,meteo_script,2013-06-27 14:05:00,
2013-06-27 09:35:00,80.5,71.2,29.87,West,265,1.4,4.0,68,0.00,NA,NA,0.00,meteo_script,2013-06-27 14:35:00,
2013-06-27 10:05:00,81.8,71.1,29.86,West,270,3.8,6.0,64,0.00,NA,NA,0.00,meteo_script,2013-06-27 15:05:00,
2013-06-27 10:35:00,83.0,71.2,29.86,West,264,2.7,6.0,61,0.00,NA,NA,0.00,meteo_script,2013-06-27 15:35:00,
2013-06-27 11:05:00,82.4,70.3,29.85,WNW,282,1.6,5.0,60,0.00,NA,NA,0.00,meteo_script,2013-06-27 16:05:00,
2013-06-27 11:35:00,82.7,71.1,29.85,West,262,5.6,9.0,61,0.00,NA,NA,0.00,meteo_script,2013-06-27 16:35:00,
2013-06-27 12:05:00,84.2,70.8,29.85,West,272,3.1,9.0,57,0.00,NA,NA,0.00,meteo_script,2013-06-27 17:05:00,
2013-06-27 12:35:00,85.3,70.8,29.85,West,279,3.9,8.0,55,0.00,NA,NA,0.00,meteo_script,2013-06-27 17:35:00,
2013-06-27 13:05:00,85.9,69.5,29.85,West,277,6.6,11.0,50,0.00,NA,NA,0.00,meteo_script,2013-06-27 18:05:00,
2013-06-27 13:35:00,87.1,70.9,29.84,West,266,5.0,9.0,51,0.00,NA,NA,0.00,meteo_script,2013-06-27 18:35:00,
2013-06-27 14:05:00,88.0,71.0,29.83,West,272,2.5,7.0,50,0.00,NA,NA,0.00,meteo_script,2013-06-27 19:05:00,
2013-06-27 14:35:00,86.4,70.5,29.83,West,265,4.3,9.0,52,0.00,NA,NA,0.00,meteo_script,2013-06-27 19:35:00,
2013-06-27 15:05:00,85.3,69.7,29.81,West,262,2.0,4.0,52,0.00,NA,NA,0.00,meteo_script,2013-06-27 20:05:00,
2013-06-27 15:35:00,86.5,70.1,29.80,West,273,3.2,7.0,51,0.00,NA,NA,0.00,meteo_script,2013-06-27 20:35:00,
2013-06-27 16:05:00,86.0,69.9,29.80,West,259,5.0,9.0,51,0.00,NA,NA,0.00,meteo_script,2013-06-27 21:05:00,
2013-06-27 16:35:00,86.5,68.7,29.79,West,272,6.9,12.0,47,0.00,NA,NA,0.00,meteo_script,2013-06-27 21:35:00,
2013-06-27 17:05:00,85.6,68.2,29.78,WSW,246,3.9,7.0,48,0.00,NA,NA,0.00,meteo_script,2013-06-27 22:05:00,
2013-06-27 17:35:00,85.1,67.5,29.78,West,260,7.9,17.0,48,0.00,NA,NA,0.00,meteo_script,2013-06-27 22:35:00,
2013-06-27 18:05:00,84.7,63.9,29.77,WNW,287,5.0,11.0,41,0.00,NA,NA,0.00,meteo_script,2013-06-27 23:05:00,
2013-06-27 18:36:00,84.0,64.8,29.77,West,275,3.5,13.0,44,0.00,NA,NA,0.00,meteo_script,2013-06-27 23:36:00,
2013-06-27 19:05:00,82.9,64.6,29.78,WNW,300,2.0,4.0,46,0.00,NA,NA,0.00,meteo_script,2013-06-28 00:05:00,
2013-06-27 19:37:00,82.1,63.9,29.78,West,265,1.5,4.0,46,0.00,NA,NA,0.00,meteo_script,2013-06-28 00:37:00,
2013-06-27 20:06:00,81.2,64.0,29.79,WSW,248,0.1,1.0,48,0.00,NA,NA,0.00,meteo_script,2013-06-28 01:06:00,
2013-06-27 20:35:00,80.4,63.7,29.80,West,273,0.0,1.0,49,0.00,NA,NA,0.00,meteo_script,2013-06-28 01:35:00,
2013-06-27 21:06:00,78.6,62.8,29.79,West,281,0.2,1.0,50,0.00,NA,NA,0.00,meteo_script,2013-06-28 02:06:00,
2013-06-27 21:35:00,77.9,62.4,29.79,West,277,0.3,2.0,51,0.00,NA,NA,0.00,meteo_script,2013-06-28 02:35:00,
2013-06-27 22:05:00,76.3,62.1,29.80,West,277,0.7,2.0,54,0.00,NA,NA,0.00,meteo_script,2013-06-28 03:05:00,
2013-06-27 22:35:00,76.0,61.5,29.80,WNW,283,1.4,3.0,53,0.00,NA,NA,0.00,meteo_script,2013-06-28 03:35:00,
2013-06-27 23:05:00,74.6,61.0,29.80,West,273,0.8,3.0,55,0.00,NA,NA,0.00,meteo_script,2013-06-28 04:05:00,
2013-06-27 23:35:00,73.7,61.0,29.80,West,281,1.9,3.0,57,0.00,NA,NA,0.00,meteo_script,2013-06-28 04:35:00,